sensor_id;sensor_type;location;lat;lon;timestamp;P1;durP1;ratioP1;P2;durP2;ratioP2
64061;SDS011;50308;47.438;-1.528;2024-02-26T00:00:28;6.22;;;2.75;;
64061;SDS011;50308;47.438;-1.528;2024-02-26T00:02:54;10.85;;;2.72;;
64061;SDS011;50308;47.438;-1.528;2024-02-26T00:05:20;5.22;;;2.03;;
64061;SDS011;50308;47.438;-1.528;2024-02-26T00:07:45;5.00;;;2.50;;
64061;SDS011;50308;47.438;-1.528;2024-02-26T00:10:12;8.23;;;2.42;;
64061;SDS011;50308;47.438;-1.528;2024-02-26T00:12:38;5.25;;;2.20;;
64061;SDS011;50308;47.438;-1.528;2024-02-26T00:15:05;7.18;;;2.67;;
64061;SDS011;50308;47.438;-1.528;2024-02-26T00:17:31;5.85;;;2.22;;
64061;SDS011;50308;47.438;-1.528;2024-02-26T00:19:57;7.60;;;2.40;;
64061;SDS011;50308;47.438;-1.528;2024-02-26T00:22:22;6.88;;;3.00;;
64061;SDS011;50308;47.438;-1.528;2024-02-26T00:24:48;5.97;;;2.20;;
64061;SDS011;50308;47.438;-1.528;2024-02-26T00:27:14;6.35;;;3.35;;
64061;SDS011;50308;47.438;-1.528;2024-02-26T00:29:39;9.18;;;3.00;;
64061;SDS011;50308;47.438;-1.528;2024-02-26T00:32:05;5.55;;;2.90;;
64061;SDS011;50308;47.438;-1.528;2024-02-26T00:34:31;3.97;;;2.35;;
64061;SDS011;50308;47.438;-1.528;2024-02-26T00:36:57;5.65;;;2.45;;
64061;SDS011;50308;47.438;-1.528;2024-02-26T00:39:22;5.88;;;2.45;;
64061;SDS011;50308;47.438;-1.528;2024-02-26T00:41:48;5.35;;;2.60;;
64061;SDS011;50308;47.438;-1.528;2024-02-26T00:44:14;7.20;;;2.70;;
64061;SDS011;50308;47.438;-1.528;2024-02-26T00:46:39;9.07;;;3.58;;
64061;SDS011;50308;47.438;-1.528;2024-02-26T00:49:05;7.22;;;3.13;;
64061;SDS011;50308;47.438;-1.528;2024-02-26T00:51:31;13.43;;;4.68;;
64061;SDS011;50308;47.438;-1.528;2024-02-26T00:53:56;8.35;;;3.85;;
64061;SDS011;50308;47.438;-1.528;2024-02-26T00:56:22;8.82;;;3.63;;
64061;SDS011;50308;47.438;-1.528;2024-02-26T00:58:48;9.55;;;4.93;;
64061;SDS011;50308;47.438;-1.528;2024-02-26T01:01:13;9.43;;;5.05;;
64061;SDS011;50308;47.438;-1.528;2024-02-26T01:03:39;8.05;;;5.82;;
64061;SDS011;50308;47.438;-1.528;2024-02-26T01:06:04;11.60;;;6.13;;
64061;SDS011;50308;47.438;-1.528;2024-02-26T01:08:30;11.35;;;6.45;;
64061;SDS011;50308;47.438;-1.528;2024-02-26T01:10:56;12.80;;;7.28;;
64061;SDS011;50308;47.438;-1.528;2024-02-26T01:13:22;12.57;;;6.40;;
64061;SDS011;50308;47.438;-1.528;2024-02-26T01:15:48;11.82;;;6.85;;
64061;SDS011;50308;47.438;-1.528;2024-02-26T01:18:13;14.73;;;7.65;;
64061;SDS011;50308;47.438;-1.528;2024-02-26T01:20:39;13.43;;;7.38;;
64061;SDS011;50308;47.438;-1.528;2024-02-26T01:23:05;14.80;;;8.55;;
64061;SDS011;50308;47.438;-1.528;2024-02-26T01:25:31;18.88;;;9.40;;
64061;SDS011;50308;47.438;-1.528;2024-02-26T01:27:56;18.55;;;9.10;;
64061;SDS011;50308;47.438;-1.528;2024-02-26T01:30:22;18.10;;;9.55;;
64061;SDS011;50308;47.438;-1.528;2024-02-26T01:32:48;18.90;;;10.15;;
64061;SDS011;50308;47.438;-1.528;2024-02-26T01:35:13;18.13;;;8.57;;
64061;SDS011;50308;47.438;-1.528;2024-02-26T01:37:39;16.98;;;8.68;;
64061;SDS011;50308;47.438;-1.528;2024-02-26T01:40:05;13.90;;;7.95;;
64061;SDS011;50308;47.438;-1.528;2024-02-26T01:42:32;15.95;;;8.52;;
64061;SDS011;50308;47.438;-1.528;2024-02-26T01:44:58;16.85;;;8.00;;
64061;SDS011;50308;47.438;-1.528;2024-02-26T01:47:24;13.77;;;7.72;;
64061;SDS011;50308;47.438;-1.528;2024-02-26T01:49:51;13.13;;;7.47;;
64061;SDS011;50308;47.438;-1.528;2024-02-26T01:52:17;13.38;;;7.28;;
64061;SDS011;50308;47.438;-1.528;2024-02-26T01:54:43;15.27;;;7.68;;
64061;SDS011;50308;47.438;-1.528;2024-02-26T01:57:10;13.82;;;7.07;;
64061;SDS011;50308;47.438;-1.528;2024-02-26T01:59:37;17.48;;;7.40;;
64061;SDS011;50308;47.438;-1.528;2024-02-26T02:02:05;13.55;;;6.85;;
64061;SDS011;50308;47.438;-1.528;2024-02-26T02:04:32;12.27;;;6.13;;
64061;SDS011;50308;47.438;-1.528;2024-02-26T02:06:59;9.45;;;5.25;;
64061;SDS011;50308;47.438;-1.528;2024-02-26T02:09:26;10.38;;;5.60;;
64061;SDS011;50308;47.438;-1.528;2024-02-26T02:11:52;9.73;;;4.75;;
64061;SDS011;50308;47.438;-1.528;2024-02-26T02:14:19;10.00;;;4.90;;
64061;SDS011;50308;47.438;-1.528;2024-02-26T02:16:45;7.18;;;4.15;;
64061;SDS011;50308;47.438;-1.528;2024-02-26T02:19:12;9.65;;;4.32;;
64061;SDS011;50308;47.438;-1.528;2024-02-26T02:21:38;6.32;;;3.72;;
64061;SDS011;50308;47.438;-1.528;2024-02-26T02:24:03;6.07;;;3.67;;
64061;SDS011;50308;47.438;-1.528;2024-02-26T02:26:29;8.00;;;3.42;;
64061;SDS011;50308;47.438;-1.528;2024-02-26T02:28:55;8.40;;;3.20;;
64061;SDS011;50308;47.438;-1.528;2024-02-26T02:31:21;9.55;;;3.92;;
64061;SDS011;50308;47.438;-1.528;2024-02-26T02:33:46;5.85;;;3.17;;
64061;SDS011;50308;47.438;-1.528;2024-02-26T02:36:12;7.63;;;2.83;;
64061;SDS011;50308;47.438;-1.528;2024-02-26T02:38:38;7.53;;;2.88;;
64061;SDS011;50308;47.438;-1.528;2024-02-26T02:41:14;5.30;;;2.83;;
64061;SDS011;50308;47.438;-1.528;2024-02-26T02:43:39;5.63;;;2.80;;
64061;SDS011;50308;47.438;-1.528;2024-02-26T02:46:05;5.00;;;2.35;;
64061;SDS011;50308;47.438;-1.528;2024-02-26T02:48:30;6.53;;;3.13;;
64061;SDS011;50308;47.438;-1.528;2024-02-26T02:50:56;5.00;;;2.75;;
64061;SDS011;50308;47.438;-1.528;2024-02-26T02:53:22;6.57;;;3.42;;
64061;SDS011;50308;47.438;-1.528;2024-02-26T02:55:47;5.72;;;2.40;;
64061;SDS011;50308;47.438;-1.528;2024-02-26T02:58:13;5.38;;;2.63;;
64061;SDS011;50308;47.438;-1.528;2024-02-26T03:00:38;4.00;;;2.20;;
64061;SDS011;50308;47.438;-1.528;2024-02-26T03:03:04;5.00;;;2.67;;
64061;SDS011;50308;47.438;-1.528;2024-02-26T03:05:30;4.47;;;2.55;;
64061;SDS011;50308;47.438;-1.528;2024-02-26T03:07:55;5.20;;;2.60;;
64061;SDS011;50308;47.438;-1.528;2024-02-26T03:10:21;4.30;;;2.33;;
64061;SDS011;50308;47.438;-1.528;2024-02-26T03:12:47;5.80;;;2.50;;
64061;SDS011;50308;47.438;-1.528;2024-02-26T03:15:12;4.40;;;2.90;;
64061;SDS011;50308;47.438;-1.528;2024-02-26T03:17:38;5.25;;;2.53;;
64061;SDS011;50308;47.438;-1.528;2024-02-26T03:20:04;4.63;;;3.42;;
64061;SDS011;50308;47.438;-1.528;2024-02-26T03:22:30;3.33;;;2.20;;
64061;SDS011;50308;47.438;-1.528;2024-02-26T03:24:56;5.90;;;1.90;;
64061;SDS011;50308;47.438;-1.528;2024-02-26T03:27:22;4.13;;;2.05;;
64061;SDS011;50308;47.438;-1.528;2024-02-26T03:29:48;3.65;;;2.28;;
64061;SDS011;50308;47.438;-1.528;2024-02-26T03:32:14;5.53;;;2.50;;
64061;SDS011;50308;47.438;-1.528;2024-02-26T03:34:39;4.65;;;2.13;;
64061;SDS011;50308;47.438;-1.528;2024-02-26T03:37:05;4.53;;;2.85;;
64061;SDS011;50308;47.438;-1.528;2024-02-26T03:39:32;4.97;;;2.47;;
64061;SDS011;50308;47.438;-1.528;2024-02-26T03:41:58;4.22;;;2.65;;
64061;SDS011;50308;47.438;-1.528;2024-02-26T03:44:23;6.07;;;3.50;;
64061;SDS011;50308;47.438;-1.528;2024-02-26T03:46:49;6.70;;;2.65;;
64061;SDS011;50308;47.438;-1.528;2024-02-26T03:49:15;6.50;;;2.95;;
64061;SDS011;50308;47.438;-1.528;2024-02-26T03:51:41;8.30;;;2.88;;
64061;SDS011;50308;47.438;-1.528;2024-02-26T03:54:07;7.00;;;2.78;;
64061;SDS011;50308;47.438;-1.528;2024-02-26T03:56:32;6.63;;;2.95;;
64061;SDS011;50308;47.438;-1.528;2024-02-26T03:58:58;10.65;;;3.03;;
64061;SDS011;50308;47.438;-1.528;2024-02-26T04:01:26;5.78;;;2.80;;
64061;SDS011;50308;47.438;-1.528;2024-02-26T04:03:52;8.55;;;3.10;;
64061;SDS011;50308;47.438;-1.528;2024-02-26T04:06:17;8.27;;;3.58;;
64061;SDS011;50308;47.438;-1.528;2024-02-26T04:08:45;11.98;;;4.03;;
64061;SDS011;50308;47.438;-1.528;2024-02-26T04:11:11;6.93;;;3.22;;
64061;SDS011;50308;47.438;-1.528;2024-02-26T04:13:37;9.85;;;3.42;;
64061;SDS011;50308;47.438;-1.528;2024-02-26T04:16:06;7.18;;;3.15;;
64061;SDS011;50308;47.438;-1.528;2024-02-26T04:18:32;7.00;;;2.83;;
64061;SDS011;50308;47.438;-1.528;2024-02-26T04:20:58;5.95;;;2.75;;
64061;SDS011;50308;47.438;-1.528;2024-02-26T04:23:24;7.47;;;3.22;;
64061;SDS011;50308;47.438;-1.528;2024-02-26T04:25:50;8.07;;;3.20;;
64061;SDS011;50308;47.438;-1.528;2024-02-26T04:28:15;5.45;;;2.67;;
64061;SDS011;50308;47.438;-1.528;2024-02-26T04:30:41;5.07;;;2.80;;
64061;SDS011;50308;47.438;-1.528;2024-02-26T04:33:07;6.22;;;2.22;;
64061;SDS011;50308;47.438;-1.528;2024-02-26T04:35:32;10.13;;;2.80;;
64061;SDS011;50308;47.438;-1.528;2024-02-26T04:38:00;4.30;;;2.70;;
64061;SDS011;50308;47.438;-1.528;2024-02-26T04:40:26;4.70;;;2.53;;
64061;SDS011;50308;47.438;-1.528;2024-02-26T04:42:51;4.35;;;2.25;;
64061;SDS011;50308;47.438;-1.528;2024-02-26T04:45:17;5.93;;;2.20;;
64061;SDS011;50308;47.438;-1.528;2024-02-26T04:47:43;5.28;;;2.38;;
64061;SDS011;50308;47.438;-1.528;2024-02-26T04:50:08;5.65;;;2.28;;
64061;SDS011;50308;47.438;-1.528;2024-02-26T04:52:34;5.97;;;2.28;;
64061;SDS011;50308;47.438;-1.528;2024-02-26T04:55:01;4.45;;;2.33;;
64061;SDS011;50308;47.438;-1.528;2024-02-26T04:57:27;8.25;;;2.75;;
64061;SDS011;50308;47.438;-1.528;2024-02-26T04:59:53;6.55;;;2.70;;
64061;SDS011;50308;47.438;-1.528;2024-02-26T05:02:18;5.85;;;2.30;;
64061;SDS011;50308;47.438;-1.528;2024-02-26T05:04:44;6.50;;;2.22;;
64061;SDS011;50308;47.438;-1.528;2024-02-26T05:07:10;6.95;;;2.65;;
64061;SDS011;50308;47.438;-1.528;2024-02-26T05:09:35;4.60;;;2.40;;
64061;SDS011;50308;47.438;-1.528;2024-02-26T05:12:01;5.00;;;2.33;;
64061;SDS011;50308;47.438;-1.528;2024-02-26T05:14:27;6.68;;;3.33;;
64061;SDS011;50308;47.438;-1.528;2024-02-26T05:16:52;5.55;;;2.30;;
64061;SDS011;50308;47.438;-1.528;2024-02-26T05:19:18;4.00;;;2.10;;
64061;SDS011;50308;47.438;-1.528;2024-02-26T05:21:44;4.03;;;1.98;;
64061;SDS011;50308;47.438;-1.528;2024-02-26T05:24:09;5.38;;;2.40;;
64061;SDS011;50308;47.438;-1.528;2024-02-26T05:26:35;6.35;;;2.40;;
64061;SDS011;50308;47.438;-1.528;2024-02-26T05:29:01;5.40;;;2.25;;
64061;SDS011;50308;47.438;-1.528;2024-02-26T05:31:27;5.45;;;2.30;;
64061;SDS011;50308;47.438;-1.528;2024-02-26T05:33:53;5.07;;;2.28;;
64061;SDS011;50308;47.438;-1.528;2024-02-26T05:36:21;6.22;;;2.40;;
64061;SDS011;50308;47.438;-1.528;2024-02-26T05:38:47;5.75;;;2.33;;
64061;SDS011;50308;47.438;-1.528;2024-02-26T05:41:16;5.03;;;2.50;;
64061;SDS011;50308;47.438;-1.528;2024-02-26T05:43:47;5.78;;;2.72;;
64061;SDS011;50308;47.438;-1.528;2024-02-26T05:46:16;4.53;;;2.30;;
64061;SDS011;50308;47.438;-1.528;2024-02-26T05:48:43;3.67;;;2.53;;
64061;SDS011;50308;47.438;-1.528;2024-02-26T05:51:09;5.55;;;2.47;;
64061;SDS011;50308;47.438;-1.528;2024-02-26T05:53:35;3.30;;;2.35;;
64061;SDS011;50308;47.438;-1.528;2024-02-26T05:56:01;4.85;;;2.83;;
64061;SDS011;50308;47.438;-1.528;2024-02-26T05:58:26;3.20;;;2.10;;
64061;SDS011;50308;47.438;-1.528;2024-02-26T06:00:52;4.75;;;2.22;;
64061;SDS011;50308;47.438;-1.528;2024-02-26T06:03:17;6.93;;;3.17;;
64061;SDS011;50308;47.438;-1.528;2024-02-26T06:05:43;3.83;;;2.58;;
64061;SDS011;50308;47.438;-1.528;2024-02-26T06:08:09;5.20;;;2.70;;
64061;SDS011;50308;47.438;-1.528;2024-02-26T06:10:34;5.68;;;3.42;;
64061;SDS011;50308;47.438;-1.528;2024-02-26T06:13:00;6.68;;;2.67;;
64061;SDS011;50308;47.438;-1.528;2024-02-26T06:15:26;5.40;;;3.33;;
64061;SDS011;50308;47.438;-1.528;2024-02-26T06:17:51;3.33;;;2.40;;
64061;SDS011;50308;47.438;-1.528;2024-02-26T06:20:17;6.55;;;3.08;;
64061;SDS011;50308;47.438;-1.528;2024-02-26T06:22:42;4.63;;;2.97;;
64061;SDS011;50308;47.438;-1.528;2024-02-26T06:25:08;4.35;;;3.17;;
64061;SDS011;50308;47.438;-1.528;2024-02-26T06:27:34;6.70;;;3.80;;
64061;SDS011;50308;47.438;-1.528;2024-02-26T06:30:01;5.30;;;3.45;;
64061;SDS011;50308;47.438;-1.528;2024-02-26T06:32:26;7.63;;;3.78;;
64061;SDS011;50308;47.438;-1.528;2024-02-26T06:34:54;5.35;;;3.38;;
64061;SDS011;50308;47.438;-1.528;2024-02-26T06:37:19;4.05;;;3.42;;
64061;SDS011;50308;47.438;-1.528;2024-02-26T06:39:45;4.40;;;3.00;;
64061;SDS011;50308;47.438;-1.528;2024-02-26T06:42:11;5.03;;;3.20;;
64061;SDS011;50308;47.438;-1.528;2024-02-26T06:44:37;5.93;;;2.95;;
64061;SDS011;50308;47.438;-1.528;2024-02-26T06:47:02;5.18;;;3.00;;
64061;SDS011;50308;47.438;-1.528;2024-02-26T06:49:28;4.43;;;2.30;;
64061;SDS011;50308;47.438;-1.528;2024-02-26T06:51:54;3.90;;;2.20;;
64061;SDS011;50308;47.438;-1.528;2024-02-26T06:54:20;2.72;;;2.17;;
64061;SDS011;50308;47.438;-1.528;2024-02-26T06:56:46;4.53;;;2.67;;
64061;SDS011;50308;47.438;-1.528;2024-02-26T06:59:11;6.57;;;3.35;;
64061;SDS011;50308;47.438;-1.528;2024-02-26T07:01:39;3.72;;;2.72;;
64061;SDS011;50308;47.438;-1.528;2024-02-26T07:04:07;6.20;;;2.67;;
64061;SDS011;50308;47.438;-1.528;2024-02-26T07:06:33;2.67;;;2.03;;
64061;SDS011;50308;47.438;-1.528;2024-02-26T07:08:59;6.80;;;2.40;;
64061;SDS011;50308;47.438;-1.528;2024-02-26T07:11:25;4.00;;;2.35;;
64061;SDS011;50308;47.438;-1.528;2024-02-26T07:13:50;3.85;;;2.10;;
64061;SDS011;50308;47.438;-1.528;2024-02-26T07:16:16;3.88;;;2.15;;
64061;SDS011;50308;47.438;-1.528;2024-02-26T07:18:42;5.25;;;2.42;;
64061;SDS011;50308;47.438;-1.528;2024-02-26T07:21:11;6.55;;;2.55;;
64061;SDS011;50308;47.438;-1.528;2024-02-26T07:23:37;3.72;;;2.70;;
64061;SDS011;50308;47.438;-1.528;2024-02-26T07:26:03;3.67;;;2.72;;
64061;SDS011;50308;47.438;-1.528;2024-02-26T07:28:28;3.55;;;2.40;;
64061;SDS011;50308;47.438;-1.528;2024-02-26T07:30:54;3.10;;;2.58;;
64061;SDS011;50308;47.438;-1.528;2024-02-26T07:33:20;3.88;;;2.55;;
64061;SDS011;50308;47.438;-1.528;2024-02-26T07:35:46;4.20;;;2.47;;
64061;SDS011;50308;47.438;-1.528;2024-02-26T07:38:11;3.47;;;2.90;;
64061;SDS011;50308;47.438;-1.528;2024-02-26T07:40:38;3.65;;;3.00;;
64061;SDS011;50308;47.438;-1.528;2024-02-26T07:43:04;4.13;;;3.00;;
64061;SDS011;50308;47.438;-1.528;2024-02-26T07:45:29;3.08;;;2.63;;
64061;SDS011;50308;47.438;-1.528;2024-02-26T07:47:55;4.70;;;2.80;;
64061;SDS011;50308;47.438;-1.528;2024-02-26T07:50:21;3.70;;;2.75;;
64061;SDS011;50308;47.438;-1.528;2024-02-26T07:52:46;3.80;;;2.92;;
64061;SDS011;50308;47.438;-1.528;2024-02-26T07:55:12;3.90;;;2.97;;
64061;SDS011;50308;47.438;-1.528;2024-02-26T07:57:41;6.38;;;3.95;;
64061;SDS011;50308;47.438;-1.528;2024-02-26T08:00:08;4.10;;;3.10;;
64061;SDS011;50308;47.438;-1.528;2024-02-26T08:02:35;4.00;;;3.00;;
64061;SDS011;50308;47.438;-1.528;2024-02-26T08:05:01;3.20;;;2.50;;
64061;SDS011;50308;47.438;-1.528;2024-02-26T08:07:27;4.10;;;2.80;;
64061;SDS011;50308;47.438;-1.528;2024-02-26T08:09:53;2.95;;;2.40;;
64061;SDS011;50308;47.438;-1.528;2024-02-26T08:12:19;3.33;;;2.50;;
64061;SDS011;50308;47.438;-1.528;2024-02-26T08:14:45;4.60;;;2.78;;
64061;SDS011;50308;47.438;-1.528;2024-02-26T08:17:10;4.00;;;2.78;;
64061;SDS011;50308;47.438;-1.528;2024-02-26T08:19:36;3.53;;;2.75;;
64061;SDS011;50308;47.438;-1.528;2024-02-26T08:22:02;3.85;;;2.20;;
64061;SDS011;50308;47.438;-1.528;2024-02-26T08:24:28;3.75;;;2.60;;
64061;SDS011;50308;47.438;-1.528;2024-02-26T08:26:54;3.55;;;2.50;;
64061;SDS011;50308;47.438;-1.528;2024-02-26T08:29:19;3.20;;;2.33;;
64061;SDS011;50308;47.438;-1.528;2024-02-26T08:31:45;3.20;;;2.60;;
64061;SDS011;50308;47.438;-1.528;2024-02-26T08:34:11;2.80;;;2.47;;
64061;SDS011;50308;47.438;-1.528;2024-02-26T08:36:37;3.90;;;2.60;;
64061;SDS011;50308;47.438;-1.528;2024-02-26T08:39:02;2.60;;;2.30;;
64061;SDS011;50308;47.438;-1.528;2024-02-26T08:41:29;3.75;;;2.60;;
64061;SDS011;50308;47.438;-1.528;2024-02-26T08:43:54;3.60;;;2.00;;
64061;SDS011;50308;47.438;-1.528;2024-02-26T08:46:20;4.22;;;2.08;;
64061;SDS011;50308;47.438;-1.528;2024-02-26T08:48:46;3.38;;;2.25;;
64061;SDS011;50308;47.438;-1.528;2024-02-26T08:51:12;4.32;;;2.35;;
64061;SDS011;50308;47.438;-1.528;2024-02-26T08:53:38;2.50;;;2.30;;
64061;SDS011;50308;47.438;-1.528;2024-02-26T08:56:04;3.10;;;2.00;;
64061;SDS011;50308;47.438;-1.528;2024-02-26T08:58:30;3.22;;;2.22;;
64061;SDS011;50308;47.438;-1.528;2024-02-26T09:00:56;2.58;;;1.90;;
64061;SDS011;50308;47.438;-1.528;2024-02-26T09:03:22;3.63;;;2.08;;
64061;SDS011;50308;47.438;-1.528;2024-02-26T09:05:48;2.25;;;1.75;;
64061;SDS011;50308;47.438;-1.528;2024-02-26T09:08:14;2.58;;;1.80;;
64061;SDS011;50308;47.438;-1.528;2024-02-26T09:10:39;2.15;;;1.80;;
64061;SDS011;50308;47.438;-1.528;2024-02-26T09:13:05;1.70;;;1.30;;
64061;SDS011;50308;47.438;-1.528;2024-02-26T09:15:31;3.00;;;1.73;;
64061;SDS011;50308;47.438;-1.528;2024-02-26T09:17:57;4.07;;;2.03;;
64061;SDS011;50308;47.438;-1.528;2024-02-26T09:20:23;2.28;;;1.60;;
64061;SDS011;50308;47.438;-1.528;2024-02-26T09:22:49;2.75;;;1.45;;
64061;SDS011;50308;47.438;-1.528;2024-02-26T09:25:16;2.25;;;1.50;;
64061;SDS011;50308;47.438;-1.528;2024-02-26T09:27:42;1.70;;;1.30;;
64061;SDS011;50308;47.438;-1.528;2024-02-26T09:30:09;2.30;;;1.23;;
64061;SDS011;50308;47.438;-1.528;2024-02-26T09:32:35;1.20;;;1.05;;
64061;SDS011;50308;47.438;-1.528;2024-02-26T09:35:01;2.08;;;0.90;;
64061;SDS011;50308;47.438;-1.528;2024-02-26T09:37:27;1.83;;;1.00;;
64061;SDS011;50308;47.438;-1.528;2024-02-26T09:39:52;2.47;;;0.90;;
64061;SDS011;50308;47.438;-1.528;2024-02-26T09:42:18;2.90;;;1.02;;
64061;SDS011;50308;47.438;-1.528;2024-02-26T09:44:44;1.88;;;0.93;;
64061;SDS011;50308;47.438;-1.528;2024-02-26T09:47:13;2.55;;;1.20;;
64061;SDS011;50308;47.438;-1.528;2024-02-26T09:49:42;3.15;;;0.90;;
64061;SDS011;50308;47.438;-1.528;2024-02-26T09:52:08;3.72;;;1.70;;
64061;SDS011;50308;47.438;-1.528;2024-02-26T09:54:34;2.33;;;0.75;;
64061;SDS011;50308;47.438;-1.528;2024-02-26T09:57:02;2.65;;;1.00;;
64061;SDS011;50308;47.438;-1.528;2024-02-26T09:59:39;1.42;;;0.80;;
64061;SDS011;50308;47.438;-1.528;2024-02-26T10:02:13;4.20;;;0.80;;
64061;SDS011;50308;47.438;-1.528;2024-02-26T10:04:40;1.55;;;1.10;;
64061;SDS011;50308;47.438;-1.528;2024-02-26T10:07:09;2.55;;;0.80;;
64061;SDS011;50308;47.438;-1.528;2024-02-26T10:09:36;3.45;;;1.10;;
64061;SDS011;50308;47.438;-1.528;2024-02-26T10:12:03;3.03;;;0.90;;
64061;SDS011;50308;47.438;-1.528;2024-02-26T10:14:30;5.72;;;0.98;;
64061;SDS011;50308;47.438;-1.528;2024-02-26T10:16:56;0.98;;;0.60;;
64061;SDS011;50308;47.438;-1.528;2024-02-26T10:19:28;1.70;;;0.88;;
64061;SDS011;50308;47.438;-1.528;2024-02-26T10:21:58;1.40;;;0.65;;
64061;SDS011;50308;47.438;-1.528;2024-02-26T10:24:25;1.77;;;0.75;;
64061;SDS011;50308;47.438;-1.528;2024-02-26T10:26:55;1.08;;;0.70;;
64061;SDS011;50308;47.438;-1.528;2024-02-26T10:29:21;2.67;;;1.15;;
64061;SDS011;50308;47.438;-1.528;2024-02-26T10:31:48;2.83;;;0.85;;
64061;SDS011;50308;47.438;-1.528;2024-02-26T10:34:17;1.67;;;1.30;;
64061;SDS011;50308;47.438;-1.528;2024-02-26T10:36:43;1.00;;;0.60;;
64061;SDS011;50308;47.438;-1.528;2024-02-26T10:39:09;1.83;;;0.60;;
64061;SDS011;50308;47.438;-1.528;2024-02-26T10:41:37;2.80;;;0.88;;
64061;SDS011;50308;47.438;-1.528;2024-02-26T10:44:03;6.43;;;0.80;;
64061;SDS011;50308;47.438;-1.528;2024-02-26T10:46:29;2.25;;;0.80;;
64061;SDS011;50308;47.438;-1.528;2024-02-26T10:48:55;0.85;;;0.65;;
64061;SDS011;50308;47.438;-1.528;2024-02-26T10:51:28;2.35;;;0.90;;
64061;SDS011;50308;47.438;-1.528;2024-02-26T10:53:55;3.10;;;1.13;;
64061;SDS011;50308;47.438;-1.528;2024-02-26T10:56:25;3.53;;;1.02;;
64061;SDS011;50308;47.438;-1.528;2024-02-26T10:58:55;2.17;;;0.90;;
64061;SDS011;50308;47.438;-1.528;2024-02-26T11:01:23;1.70;;;0.80;;
64061;SDS011;50308;47.438;-1.528;2024-02-26T11:03:50;3.55;;;0.80;;
64061;SDS011;50308;47.438;-1.528;2024-02-26T11:06:17;2.03;;;0.88;;
64061;SDS011;50308;47.438;-1.528;2024-02-26T11:08:47;1.98;;;1.00;;
64061;SDS011;50308;47.438;-1.528;2024-02-26T11:11:14;2.63;;;1.23;;
64061;SDS011;50308;47.438;-1.528;2024-02-26T11:13:42;1.67;;;1.00;;
64061;SDS011;50308;47.438;-1.528;2024-02-26T11:16:14;2.90;;;1.10;;
64061;SDS011;50308;47.438;-1.528;2024-02-26T11:18:41;2.45;;;0.90;;
64061;SDS011;50308;47.438;-1.528;2024-02-26T11:21:07;3.05;;;1.20;;
64061;SDS011;50308;47.438;-1.528;2024-02-26T11:23:34;1.90;;;0.95;;
64061;SDS011;50308;47.438;-1.528;2024-02-26T11:26:02;2.20;;;0.90;;
64061;SDS011;50308;47.438;-1.528;2024-02-26T11:28:29;2.08;;;1.40;;
64061;SDS011;50308;47.438;-1.528;2024-02-26T11:30:57;1.73;;;1.00;;
64061;SDS011;50308;47.438;-1.528;2024-02-26T11:33:24;2.80;;;0.90;;
64061;SDS011;50308;47.438;-1.528;2024-02-26T11:35:50;1.90;;;1.08;;
64061;SDS011;50308;47.438;-1.528;2024-02-26T11:38:23;1.65;;;0.85;;
64061;SDS011;50308;47.438;-1.528;2024-02-26T11:40:52;2.72;;;0.95;;
64061;SDS011;50308;47.438;-1.528;2024-02-26T11:43:22;1.23;;;0.85;;
64061;SDS011;50308;47.438;-1.528;2024-02-26T11:46:24;2.78;;;1.00;;
64061;SDS011;50308;47.438;-1.528;2024-02-26T11:48:51;1.92;;;1.02;;
64061;SDS011;50308;47.438;-1.528;2024-02-26T11:51:19;3.10;;;0.73;;
64061;SDS011;50308;47.438;-1.528;2024-02-26T11:53:50;2.17;;;1.00;;
64061;SDS011;50308;47.438;-1.528;2024-02-26T11:58:48;2.80;;;0.80;;
64061;SDS011;50308;47.438;-1.528;2024-02-26T12:01:39;0.87;;;0.60;;
64061;SDS011;50308;47.438;-1.528;2024-02-26T12:04:14;3.45;;;1.10;;
64061;SDS011;50308;47.438;-1.528;2024-02-26T12:06:45;2.78;;;1.40;;
64061;SDS011;50308;47.438;-1.528;2024-02-26T12:09:13;3.47;;;1.00;;
64061;SDS011;50308;47.438;-1.528;2024-02-26T12:11:55;2.28;;;1.17;;
64061;SDS011;50308;47.438;-1.528;2024-02-26T12:14:24;3.60;;;1.25;;
64061;SDS011;50308;47.438;-1.528;2024-02-26T12:16:50;2.35;;;0.70;;
64061;SDS011;50308;47.438;-1.528;2024-02-26T12:19:17;1.35;;;0.80;;
64061;SDS011;50308;47.438;-1.528;2024-02-26T12:21:44;1.48;;;1.00;;
64061;SDS011;50308;47.438;-1.528;2024-02-26T12:24:10;2.08;;;0.60;;
64061;SDS011;50308;47.438;-1.528;2024-02-26T12:26:38;2.28;;;0.95;;
64061;SDS011;50308;47.438;-1.528;2024-02-26T12:29:04;2.28;;;0.70;;
64061;SDS011;50308;47.438;-1.528;2024-02-26T12:31:30;1.98;;;0.90;;
64061;SDS011;50308;47.438;-1.528;2024-02-26T12:33:57;0.98;;;0.65;;
64061;SDS011;50308;47.438;-1.528;2024-02-26T12:36:23;2.33;;;0.98;;
64061;SDS011;50308;47.438;-1.528;2024-02-26T12:38:50;2.50;;;0.70;;
64061;SDS011;50308;47.438;-1.528;2024-02-26T12:41:16;2.13;;;0.75;;
64061;SDS011;50308;47.438;-1.528;2024-02-26T12:43:42;2.55;;;0.90;;
64061;SDS011;50308;47.438;-1.528;2024-02-26T12:46:08;1.48;;;0.75;;
64061;SDS011;50308;47.438;-1.528;2024-02-26T12:48:33;2.45;;;1.05;;
64061;SDS011;50308;47.438;-1.528;2024-02-26T12:50:59;1.23;;;0.68;;
64061;SDS011;50308;47.438;-1.528;2024-02-26T12:53:26;1.20;;;0.70;;
64061;SDS011;50308;47.438;-1.528;2024-02-26T12:55:52;2.47;;;0.70;;
64061;SDS011;50308;47.438;-1.528;2024-02-26T12:58:21;1.08;;;0.70;;
64061;SDS011;50308;47.438;-1.528;2024-02-26T13:00:52;2.28;;;1.00;;
64061;SDS011;50308;47.438;-1.528;2024-02-26T13:03:19;5.38;;;1.23;;
64061;SDS011;50308;47.438;-1.528;2024-02-26T13:05:47;3.15;;;1.10;;
64061;SDS011;50308;47.438;-1.528;2024-02-26T13:08:19;1.77;;;0.80;;
64061;SDS011;50308;47.438;-1.528;2024-02-26T13:10:46;1.45;;;0.70;;
64061;SDS011;50308;47.438;-1.528;2024-02-26T13:13:14;3.75;;;0.70;;
64061;SDS011;50308;47.438;-1.528;2024-02-26T13:15:43;1.33;;;0.60;;
64061;SDS011;50308;47.438;-1.528;2024-02-26T13:18:15;3.88;;;1.05;;
64061;SDS011;50308;47.438;-1.528;2024-02-26T13:20:41;4.22;;;1.00;;
64061;SDS011;50308;47.438;-1.528;2024-02-26T13:23:08;3.47;;;1.45;;
64061;SDS011;50308;47.438;-1.528;2024-02-26T13:25:37;3.78;;;1.17;;
64061;SDS011;50308;47.438;-1.528;2024-02-26T13:28:19;2.97;;;0.82;;
64061;SDS011;50308;47.438;-1.528;2024-02-26T13:30:51;2.03;;;0.70;;
64061;SDS011;50308;47.438;-1.528;2024-02-26T13:33:18;1.73;;;0.77;;
64061;SDS011;50308;47.438;-1.528;2024-02-26T13:35:44;2.00;;;0.73;;
64061;SDS011;50308;47.438;-1.528;2024-02-26T13:38:10;2.38;;;0.90;;
64061;SDS011;50308;47.438;-1.528;2024-02-26T13:40:37;2.65;;;0.80;;
64061;SDS011;50308;47.438;-1.528;2024-02-26T13:43:04;2.65;;;0.77;;
64061;SDS011;50308;47.438;-1.528;2024-02-26T13:45:29;1.58;;;0.70;;
64061;SDS011;50308;47.438;-1.528;2024-02-26T13:47:59;2.28;;;0.93;;
64061;SDS011;50308;47.438;-1.528;2024-02-26T13:50:28;1.35;;;0.80;;
64061;SDS011;50308;47.438;-1.528;2024-02-26T13:52:54;2.40;;;0.88;;
64061;SDS011;50308;47.438;-1.528;2024-02-26T13:55:21;1.70;;;0.93;;
64061;SDS011;50308;47.438;-1.528;2024-02-26T13:57:48;1.58;;;0.68;;
64061;SDS011;50308;47.438;-1.528;2024-02-26T14:00:16;3.13;;;0.90;;
64061;SDS011;50308;47.438;-1.528;2024-02-26T14:02:42;5.32;;;0.88;;
64061;SDS011;50308;47.438;-1.528;2024-02-26T14:05:08;2.70;;;0.90;;
64061;SDS011;50308;47.438;-1.528;2024-02-26T14:07:34;4.03;;;1.00;;
64061;SDS011;50308;47.438;-1.528;2024-02-26T14:09:59;2.13;;;0.80;;
64061;SDS011;50308;47.438;-1.528;2024-02-26T14:12:25;3.78;;;0.82;;
64061;SDS011;50308;47.438;-1.528;2024-02-26T14:14:51;2.17;;;0.82;;
64061;SDS011;50308;47.438;-1.528;2024-02-26T14:17:19;1.38;;;0.60;;
64061;SDS011;50308;47.438;-1.528;2024-02-26T14:19:44;1.38;;;0.60;;
64061;SDS011;50308;47.438;-1.528;2024-02-26T14:22:12;1.13;;;0.65;;
64061;SDS011;50308;47.438;-1.528;2024-02-26T14:24:38;1.08;;;0.60;;
64061;SDS011;50308;47.438;-1.528;2024-02-26T14:27:04;2.15;;;0.55;;
64061;SDS011;50308;47.438;-1.528;2024-02-26T14:29:32;1.73;;;0.60;;
64061;SDS011;50308;47.438;-1.528;2024-02-26T14:31:58;0.73;;;0.63;;